Time;durP1;ratioP1;P1;durP2;ratioP2;P2;SDS_P1;SDS_P2;PMS_P1;PMS_P2;Temp;Humidity;BMP_temperature;BMP_pressure;BME280_temperature;BME280_humidity;BME280_pressure;Samples;Min_cycle;Max_cycle;Signal;HPM_P1;HPM_P2
2023/03/13 00:01:26;;;;;;;8.70;3.72;;;11.60;99.90;;;;;;5046484;28;20190;-61
2023/03/13 00:03:54;;;;;;;9.65;4.95;;;11.60;99.90;;;;;;5040361;28;20194;-61
2023/03/13 00:06:21;;;;;;;10.57;5.50;;;11.60;99.90;;;;;;5043821;28;20230;-60
2023/03/13 00:08:47;;;;;;;11.77;3.08;;;11.60;99.90;;;;;;5066467;28;20578;-60
2023/03/13 00:11:14;;;;;;;14.05;5.80;;;11.60;99.90;;;;;;5068673;28;20232;-61
2023/03/13 00:13:40;;;;;;;7.20;5.13;;;11.60;99.90;;;;;;5056929;28;20186;-59
2023/03/13 00:16:11;;;;;;;9.20;4.82;;;11.70;99.90;;;;;;5065400;28;20189;-60
2023/03/13 00:18:37;;;;;;;12.05;4.35;;;11.70;99.90;;;;;;5070271;28;20311;-60
2023/03/13 00:21:08;;;;;;;11.05;4.90;;;11.70;99.90;;;;;;5071497;28;20276;-61
2023/03/13 00:23:35;;;;;;;13.93;5.50;;;11.60;99.90;;;;;;5064141;28;20659;-60
2023/03/13 00:26:09;;;;;;;10.32;4.65;;;11.60;99.90;;;;;;5071186;28;20653;-61
2023/03/13 00:28:36;;;;;;;7.32;3.83;;;11.60;99.90;;;;;;5058373;28;20189;-60
2023/03/13 00:31:04;;;;;;;11.07;4.32;;;11.70;99.90;;;;;;5054296;28;20206;-61
2023/03/13 00:33:32;;;;;;;7.25;6.30;;;11.70;99.90;;;;;;5059592;28;20260;-61
2023/03/13 00:36:00;;;;;;;8.90;4.95;;;11.70;99.90;;;;;;5054941;28;20651;-60
2023/03/13 00:38:27;;;;;;;6.28;3.95;;;11.70;99.90;;;;;;5061469;28;20197;-61
2023/03/13 00:41:04;;;;;;;8.77;4.90;;;11.70;99.90;;;;;;5053764;28;20194;-60
2023/03/13 00:43:30;;;;;;;7.50;5.07;;;11.80;99.90;;;;;;5066092;28;20216;-61
2023/03/13 00:45:56;;;;;;;12.07;5.15;;;11.70;99.90;;;;;;5067183;28;20303;-60
2023/03/13 00:48:22;;;;;;;16.88;5.10;;;11.80;99.90;;;;;;5061786;28;20185;-60
2023/03/13 00:50:48;;;;;;;9.75;4.65;;;11.80;99.90;;;;;;5057587;28;20198;-61
2023/03/13 00:53:14;;;;;;;11.80;5.25;;;11.70;99.90;;;;;;5065649;28;20204;-61
2023/03/13 00:55:54;;;;;;;12.18;5.22;;;11.70;99.90;;;;;;5065525;28;20606;-61
2023/03/13 00:58:21;;;;;;;11.05;5.55;;;11.80;99.90;;;;;;5053519;28;20197;-61
2023/03/13 01:00:47;;;;;;;10.60;5.10;;;11.80;99.90;;;;;;5065616;28;20189;-61
2023/03/13 01:03:13;;;;;;;8.00;5.00;;;11.80;99.90;;;;;;5068100;28;20234;-61
2023/03/13 01:05:38;;;;;;;11.13;4.57;;;11.90;99.90;;;;;;5057811;28;20216;-61
2023/03/13 01:08:04;;;;;;;7.60;4.75;;;11.90;99.90;;;;;;5040445;28;20253;-60
2023/03/13 01:10:30;;;;;;;8.55;6.22;;;11.80;99.90;;;;;;5045963;28;20206;-61
2023/03/13 01:12:56;;;;;;;7.57;4.90;;;11.80;99.90;;;;;;5051912;28;20185;-59
2023/03/13 01:15:23;;;;;;;8.93;5.57;;;11.80;99.90;;;;;;5042106;28;20201;-60
2023/03/13 01:17:48;;;;;;;10.15;5.43;;;11.90;99.90;;;;;;5045741;28;20190;-60
2023/03/13 01:20:14;;;;;;;7.18;4.85;;;11.90;99.90;;;;;;5051043;28;20197;-61
2023/03/13 01:22:39;;;;;;;8.45;6.10;;;11.90;99.90;;;;;;5040290;28;20183;-60
2023/03/13 01:25:06;;;;;;;10.20;6.07;;;11.90;99.90;;;;;;5031986;28;20627;-60
2023/03/13 01:27:31;;;;;;;9.65;6.28;;;11.90;99.90;;;;;;5038803;28;20189;-60
2023/03/13 01:29:57;;;;;;;13.07;5.97;;;11.90;99.90;;;;;;5031687;28;20588;-60
2023/03/13 01:32:23;;;;;;;11.55;7.43;;;11.90;99.90;;;;;;5031930;28;20194;-60
2023/03/13 01:34:48;;;;;;;11.70;6.63;;;11.90;99.90;;;;;;5046639;28;20190;-59
2023/03/13 01:37:14;;;;;;;18.75;7.18;;;12.10;99.90;;;;;;5045188;28;20313;-60
2023/03/13 01:39:40;;;;;;;12.00;7.18;;;12.10;99.90;;;;;;5051105;28;20193;-60
2023/03/13 01:42:06;;;;;;;13.75;7.03;;;12.10;99.90;;;;;;5042393;28;20226;-60
2023/03/13 01:44:55;;;;;;;11.05;7.45;;;12.10;99.90;;;;;;5045222;28;20193;-60
2023/03/13 01:47:21;;;;;;;13.68;7.28;;;12.10;99.90;;;;;;5046080;28;20212;-60
2023/03/13 01:49:48;;;;;;;12.02;6.68;;;12.10;99.90;;;;;;5051671;28;20322;-60
2023/03/13 01:52:29;;;;;;;14.32;7.30;;;12.20;99.90;;;;;;5045967;28;20285;-60
2023/03/13 01:55:00;;;;;;;14.73;7.68;;;12.30;99.90;;;;;;5043142;28;20212;-60
2023/03/13 01:57:32;;;;;;;15.93;9.10;;;12.30;99.90;;;;;;5045627;28;20185;-60
2023/03/13 02:00:17;;;;;;;11.70;7.28;;;12.30;99.90;;;;;;5053538;28;20715;-61
2023/03/13 02:02:47;;;;;;;14.63;6.85;;;12.30;99.90;;;;;;5040086;28;20669;-60
2023/03/13 02:05:15;;;;;;;12.38;7.70;;;12.40;99.90;;;;;;5047643;28;20186;-60
2023/03/13 02:07:49;;;;;;;7.60;6.05;;;12.30;99.90;;;;;;5042459;28;20245;-60
2023/03/13 02:10:16;;;;;;;10.82;6.43;;;12.30;99.90;;;;;;5041006;28;20251;-60
2023/03/13 02:12:43;;;;;;;12.98;6.50;;;12.40;99.90;;;;;;5047763;28;20360;-60
2023/03/13 02:15:21;;;;;;;6.47;4.78;;;12.40;99.90;;;;;;5034566;28;20186;-60
2023/03/13 02:17:49;;;;;;;9.27;5.40;;;12.40;99.90;;;;;;5053509;28;20177;-60
2023/03/13 02:20:20;;;;;;;9.45;5.65;;;12.50;99.90;;;;;;5040523;28;20187;-60
2023/03/13 02:23:15;;;;;;;6.03;4.50;;;12.50;99.90;;;;;;5041653;28;20193;-60
2023/03/13 02:25:47;;;;;;;8.60;5.78;;;12.50;99.90;;;;;;5050552;28;20186;-59
2023/03/13 02:28:19;;;;;;;6.82;5.00;;;12.60;99.90;;;;;;5050835;28;20185;-60
2023/03/13 02:30:47;;;;;;;7.25;5.13;;;12.70;99.90;;;;;;5040186;28;20205;-61
2023/03/13 02:33:13;;;;;;;6.03;4.88;;;12.70;99.90;;;;;;5049645;28;20248;-61
2023/03/13 02:35:41;;;;;;;10.10;6.35;;;12.80;99.90;;;;;;5043934;28;20178;-61
2023/03/13 02:38:10;;;;;;;7.72;5.60;;;12.80;99.90;;;;;;5036169;28;20678;-60
2023/03/13 02:40:40;;;;;;;6.35;4.72;;;12.90;99.90;;;;;;5042474;28;20213;-61
2023/03/13 02:43:14;;;;;;;11.45;6.07;;;13.00;99.90;;;;;;5053067;28;20219;-61
2023/03/13 02:45:39;;;;;;;5.78;4.65;;;13.00;99.90;;;;;;5043398;28;20528;-60
2023/03/13 02:48:05;;;;;;;7.55;5.40;;;13.00;99.90;;;;;;5042523;28;20182;-60
2023/03/13 02:50:32;;;;;;;11.00;4.50;;;13.10;99.90;;;;;;5051581;28;20210;-61
2023/03/13 02:53:02;;;;;;;8.43;5.10;;;13.20;99.90;;;;;;5052394;28;20182;-60
2023/03/13 02:55:40;;;;;;;8.02;5.45;;;13.10;99.90;;;;;;5050758;28;20208;-60
2023/03/13 02:58:06;;;;;;;6.60;5.75;;;13.30;99.90;;;;;;5046812;28;20182;-60
2023/03/13 03:00:31;;;;;;;7.13;5.22;;;13.20;99.90;;;;;;5043216;28;20301;-60
2023/03/13 03:02:57;;;;;;;10.38;4.95;;;13.20;99.90;;;;;;5039899;28;20221;-59
2023/03/13 03:05:23;;;;;;;7.05;3.97;;;13.30;99.90;;;;;;5045653;28;20657;-61
2023/03/13 03:07:50;;;;;;;5.20;4.00;;;13.40;99.90;;;;;;5066866;28;20720;-61
2023/03/13 03:10:16;;;;;;;11.07;4.30;;;13.40;99.90;;;;;;5060550;28;20208;-61
2023/03/13 03:12:42;;;;;;;5.78;4.07;;;13.50;99.90;;;;;;5061526;28;20197;-60
2023/03/13 03:15:09;;;;;;;4.97;4.47;;;13.50;99.90;;;;;;5057799;28;20621;-60
2023/03/13 03:17:34;;;;;;;8.70;4.10;;;13.40;99.90;;;;;;5060570;28;20182;-60
2023/03/13 03:20:00;;;;;;;5.47;4.20;;;13.40;99.90;;;;;;5069203;28;20268;-61
2023/03/13 03:22:25;;;;;;;4.63;3.72;;;13.40;99.90;;;;;;5059241;28;20177;-60
2023/03/13 03:24:51;;;;;;;10.07;4.10;;;13.40;99.90;;;;;;5059543;28;20213;-60
2023/03/13 03:27:17;;;;;;;4.65;3.75;;;13.50;99.90;;;;;;5061466;28;20323;-60
2023/03/13 03:29:42;;;;;;;4.45;3.50;;;13.60;99.90;;;;;;5063327;28;20217;-61
2023/03/13 03:32:08;;;;;;;4.50;3.60;;;13.50;99.90;;;;;;5062095;28;20189;-60
2023/03/13 03:34:34;;;;;;;6.05;3.58;;;13.40;99.90;;;;;;5069516;28;20186;-61
2023/03/13 03:36:59;;;;;;;4.88;3.58;;;13.40;99.90;;;;;;5060198;28;20215;-60
2023/03/13 03:39:25;;;;;;;4.43;3.83;;;13.40;99.90;;;;;;5070369;28;20595;-61
2023/03/13 03:41:50;;;;;;;6.63;3.92;;;13.40;99.90;;;;;;5062004;28;20192;-60
2023/03/13 03:44:16;;;;;;;3.83;3.08;;;13.40;99.90;;;;;;5062365;28;20197;-60
2023/03/13 03:46:42;;;;;;;4.40;3.42;;;13.50;99.90;;;;;;5066446;28;20178;-60
2023/03/13 03:49:07;;;;;;;4.93;2.97;;;13.50;99.90;;;;;;5070224;28;20661;-60
2023/03/13 03:51:33;;;;;;;4.43;3.20;;;13.60;99.90;;;;;;5065109;28;20338;-61
2023/03/13 03:53:59;;;;;;;5.82;3.30;;;13.60;99.90;;;;;;5058477;28;20190;-61
2023/03/13 03:56:24;;;;;;;7.60;3.35;;;13.60;99.90;;;;;;5060488;28;20554;-61
2023/03/13 03:58:50;;;;;;;4.13;3.08;;;13.60;99.90;;;;;;5069857;28;20280;-60
2023/03/13 04:01:16;;;;;;;4.47;3.40;;;13.60;99.90;;;;;;5059251;28;20189;-61
2023/03/13 04:03:41;;;;;;;5.32;3.95;;;13.60;99.90;;;;;;5052942;28;20874;-61
2023/03/13 04:06:08;;;;;;;4.47;3.22;;;13.70;99.90;;;;;;5051718;28;20230;-60
2023/03/13 04:08:33;;;;;;;5.10;3.13;;;13.80;99.90;;;;;;5052781;28;20295;-60
2023/03/13 04:11:00;;;;;;;3.53;2.90;;;13.80;99.90;;;;;;5037410;28;20209;-61
2023/03/13 04:13:26;;;;;;;3.97;2.83;;;13.70;99.90;;;;;;5043558;28;20293;-61
2023/03/13 04:15:52;;;;;;;7.30;3.50;;;13.70;99.90;;;;;;5051843;28;20257;-61
2023/03/13 04:18:18;;;;;;;4.55;3.03;;;13.70;99.90;;;;;;5050853;28;20178;-60
2023/03/13 04:20:44;;;;;;;3.10;2.90;;;13.70;99.90;;;;;;5035582;28;20655;-60
2023/03/13 04:23:09;;;;;;;6.30;3.47;;;13.60;99.90;;;;;;5040592;28;20190;-61
2023/03/13 04:25:35;;;;;;;5.93;3.33;;;13.60;99.90;;;;;;5033099;28;20189;-61
2023/03/13 04:28:01;;;;;;;3.83;3.20;;;13.80;99.90;;;;;;5045597;28;20602;-61
2023/03/13 04:30:26;;;;;;;4.20;3.53;;;13.90;99.90;;;;;;5032031;28;20205;-60
2023/03/13 04:32:52;;;;;;;4.40;2.80;;;13.90;99.90;;;;;;5035512;28;20706;-60
2023/03/13 04:35:18;;;;;;;3.97;3.20;;;13.90;99.90;;;;;;5044407;28;20577;-61
2023/03/13 04:37:44;;;;;;;5.60;2.80;;;13.90;99.90;;;;;;5050644;28;20182;-60
2023/03/13 04:40:11;;;;;;;4.18;3.03;;;13.90;99.90;;;;;;5045369;28;20713;-61
2023/03/13 04:42:37;;;;;;;5.20;2.72;;;13.80;99.90;;;;;;5047286;28;20182;-61
2023/03/13 04:45:03;;;;;;;2.92;2.65;;;13.80;99.90;;;;;;5042689;28;20277;-61
2023/03/13 04:47:29;;;;;;;3.10;2.53;;;13.90;99.90;;;;;;5048392;28;20189;-61
2023/03/13 04:49:55;;;;;;;4.28;2.65;;;14.00;99.90;;;;;;5050610;28;20210;-61
2023/03/13 04:52:21;;;;;;;3.40;2.90;;;13.90;99.90;;;;;;5042140;28;20201;-61
2023/03/13 04:54:47;;;;;;;3.17;2.88;;;14.00;99.90;;;;;;5040960;28;20323;-61
2023/03/13 04:57:12;;;;;;;3.95;2.60;;;14.00;99.90;;;;;;5047760;28;20272;-61
2023/03/13 04:59:38;;;;;;;2.70;2.42;;;14.10;99.90;;;;;;5042499;28;20225;-60
2023/03/13 05:02:04;;;;;;;7.80;3.10;;;14.20;99.90;;;;;;5036735;28;20186;-61
2023/03/13 05:04:29;;;;;;;4.47;2.47;;;14.20;99.90;;;;;;5037598;28;20196;-60
2023/03/13 05:06:55;;;;;;;4.47;3.03;;;14.10;99.90;;;;;;5049911;28;20284;-61
2023/03/13 05:09:21;;;;;;;2.97;2.72;;;14.10;99.90;;;;;;5047606;28;20190;-60
2023/03/13 05:11:46;;;;;;;4.75;2.85;;;14.10;99.90;;;;;;5055010;28;20205;-61
2023/03/13 05:14:12;;;;;;;4.32;2.80;;;14.00;99.90;;;;;;5048148;28;20186;-60
2023/03/13 05:16:38;;;;;;;2.85;2.60;;;14.00;99.90;;;;;;5032651;28;20186;-61
2023/03/13 05:19:04;;;;;;;9.30;3.50;;;14.00;99.90;;;;;;5043242;28;20217;-61
2023/03/13 05:21:29;;;;;;;2.90;2.63;;;14.10;99.90;;;;;;5049292;28;20227;-60
2023/03/13 05:23:56;;;;;;;4.15;3.05;;;14.00;99.90;;;;;;5054860;28;20192;-61
2023/03/13 05:26:22;;;;;;;4.20;3.10;;;13.90;99.90;;;;;;5051806;28;20183;-61
2023/03/13 05:28:47;;;;;;;9.38;2.92;;;13.90;99.90;;;;;;5049186;28;20183;-62
2023/03/13 05:31:13;;;;;;;4.75;2.90;;;14.00;99.90;;;;;;5029345;28;20264;-60
2023/03/13 05:33:38;;;;;;;5.65;3.08;;;14.00;99.90;;;;;;5049047;28;20654;-60
2023/03/13 05:36:04;;;;;;;5.32;3.60;;;14.00;99.90;;;;;;5043477;28;20202;-62
2023/03/13 05:38:30;;;;;;;9.20;3.00;;;13.90;99.90;;;;;;5042590;28;20191;-60
2023/03/13 05:40:55;;;;;;;7.70;3.10;;;13.70;99.90;;;;;;5035905;28;20201;-60
2023/03/13 05:43:21;;;;;;;8.73;2.92;;;13.70;99.90;;;;;;5051473;28;20278;-60
2023/03/13 05:45:47;;;;;;;3.05;2.70;;;13.80;99.90;;;;;;5049404;28;20187;-60
2023/03/13 05:48:12;;;;;;;6.75;2.90;;;13.80;99.90;;;;;;5052803;28;20645;-61
2023/03/13 05:50:38;;;;;;;5.07;2.90;;;13.70;99.90;;;;;;5042319;28;20217;-60
2023/03/13 05:53:04;;;;;;;6.28;3.88;;;13.70;99.90;;;;;;5048548;28;20554;-60
2023/03/13 05:55:29;;;;;;;3.17;2.70;;;13.70;99.90;;;;;;5041841;28;20192;-59
2023/03/13 05:57:55;;;;;;;3.00;2.58;;;13.70;99.90;;;;;;5051024;28;20183;-61
2023/03/13 06:00:21;;;;;;;9.38;3.42;;;13.80;99.90;;;;;;5051236;28;20585;-61
2023/03/13 06:02:46;;;;;;;3.05;2.83;;;13.90;99.90;;;;;;5048762;28;20658;-60
2023/03/13 06:05:12;;;;;;;3.25;2.58;;;13.90;99.90;;;;;;5045730;28;20182;-60
2023/03/13 06:07:38;;;;;;;6.00;2.80;;;13.80;99.90;;;;;;5042388;28;20264;-60
2023/03/13 06:10:04;;;;;;;5.80;2.60;;;13.90;99.90;;;;;;5048923;28;20206;-60
2023/03/13 06:12:30;;;;;;;6.15;2.90;;;13.90;99.90;;;;;;5043789;28;20643;-60
2023/03/13 06:14:55;;;;;;;9.85;3.60;;;14.00;99.90;;;;;;5043080;28;20182;-60
2023/03/13 06:17:21;;;;;;;4.97;3.00;;;14.10;99.90;;;;;;5049359;28;20205;-61
2023/03/13 06:19:47;;;;;;;3.97;2.95;;;14.10;99.90;;;;;;5049475;28;20615;-61
2023/03/13 06:22:12;;;;;;;6.95;3.42;;;13.90;99.90;;;;;;5029212;28;20650;-60
2023/03/13 06:24:38;;;;;;;5.38;2.72;;;14.00;99.90;;;;;;5037609;28;20189;-60
2023/03/13 06:27:04;;;;;;;5.85;3.65;;;13.90;99.90;;;;;;5049960;28;20188;-60
2023/03/13 06:29:29;;;;;;;5.18;2.25;;;13.90;99.90;;;;;;5053791;28;20190;-60
2023/03/13 06:31:55;;;;;;;8.68;2.83;;;14.00;99.90;;;;;;5043379;28;20311;-60
2023/03/13 06:34:21;;;;;;;8.40;2.72;;;14.00;99.90;;;;;;5051524;28;20623;-59
2023/03/13 06:36:46;;;;;;;4.63;2.35;;;14.00;99.90;;;;;;5046968;28;20186;-60
2023/03/13 06:39:12;;;;;;;3.97;2.58;;;14.00;99.90;;;;;;5045331;28;20649;-60
2023/03/13 06:41:38;;;;;;;4.43;3.05;;;14.00;99.90;;;;;;5046107;28;20251;-62
2023/03/13 06:44:04;;;;;;;7.35;3.28;;;14.00;99.90;;;;;;5038515;28;20202;-61
2023/03/13 06:46:30;;;;;;;5.97;2.80;;;14.10;99.90;;;;;;5042292;28;20201;-60
2023/03/13 06:48:56;;;;;;;5.82;3.05;;;14.30;99.90;;;;;;5050500;28;20186;-63
2023/03/13 06:51:22;;;;;;;5.05;2.55;;;14.20;99.90;;;;;;5045499;28;20652;-61
2023/03/13 06:53:48;;;;;;;6.00;3.40;;;14.10;99.90;;;;;;5039947;28;20190;-61
2023/03/13 06:56:14;;;;;;;4.63;2.80;;;14.10;99.90;;;;;;5047419;28;20187;-62
2023/03/13 06:58:40;;;;;;;4.65;2.58;;;14.10;99.90;;;;;;5045911;28;20264;-61
2023/03/13 07:01:10;;;;;;;4.95;2.65;;;14.10;99.90;;;;;;5043415;28;20183;-61
2023/03/13 07:03:36;;;;;;;7.10;2.67;;;14.20;99.90;;;;;;5050786;28;20212;-62
2023/03/13 07:06:02;;;;;;;3.40;2.45;;;14.10;99.90;;;;;;5041030;28;20286;-62
2023/03/13 07:08:28;;;;;;;8.75;2.83;;;14.30;99.90;;;;;;5050507;28;20190;-62
2023/03/13 07:10:58;;;;;;;5.65;3.78;;;14.30;99.90;;;;;;5051931;28;20224;-62
2023/03/13 07:13:24;;;;;;;2.85;2.60;;;14.30;99.90;;;;;;5039470;28;20273;-62
2023/03/13 07:15:50;;;;;;;4.07;2.70;;;14.30;99.90;;;;;;5051699;28;20319;-62
2023/03/13 07:18:16;;;;;;;3.22;2.38;;;14.30;99.90;;;;;;5047356;28;20628;-61
2023/03/13 07:20:42;;;;;;;3.65;2.70;;;14.30;99.90;;;;;;5038603;28;20196;-62
2023/03/13 07:23:08;;;;;;;4.50;3.33;;;14.30;99.90;;;;;;5034896;28;20199;-61
2023/03/13 07:25:34;;;;;;;6.78;2.95;;;14.30;99.90;;;;;;5051587;28;20190;-62
2023/03/13 07:28:00;;;;;;;4.78;3.08;;;14.30;99.90;;;;;;5045268;28;20187;-62
2023/03/13 07:30:26;;;;;;;5.13;2.97;;;14.30;99.90;;;;;;5040620;28;20308;-65
2023/03/13 07:32:52;;;;;;;5.90;2.50;;;14.40;99.90;;;;;;5022016;28;20194;-62
2023/03/13 07:35:18;;;;;;;7.68;3.08;;;14.40;99.90;;;;;;5047551;28;20194;-62
2023/03/13 07:37:44;;;;;;;6.82;3.10;;;14.40;99.90;;;;;;5020386;28;20222;-63
2023/03/13 07:40:10;;;;;;;4.88;3.30;;;14.50;99.90;;;;;;5042572;28;20190;-62
2023/03/13 07:42:39;;;;;;;3.08;2.80;;;14.40;99.90;;;;;;5039700;28;20559;-63
2023/03/13 07:45:05;;;;;;;3.85;3.22;;;14.40;99.90;;;;;;5041410;28;20222;-62
2023/03/13 07:47:33;;;;;;;9.38;3.42;;;14.50;99.90;;;;;;5043230;28;20186;-64
2023/03/13 07:49:59;;;;;;;6.82;2.92;;;14.50;99.90;;;;;;5037404;28;20645;-60
2023/03/13 07:52:26;;;;;;;6.10;2.40;;;14.60;99.90;;;;;;5035652;28;20280;-63
2023/03/13 07:54:52;;;;;;;2.53;2.33;;;14.90;99.90;;;;;;5044172;28;20175;-61
2023/03/13 07:57:18;;;;;;;6.55;2.95;;;15.00;99.90;;;;;;5039030;28;20190;-61
2023/03/13 07:59:44;;;;;;;5.38;2.47;;;15.10;99.90;;;;;;5048153;28;20185;-61
2023/03/13 08:02:12;;;;;;;4.20;2.17;;;15.80;99.90;;;;;;5038697;28;20586;-61
2023/03/13 08:04:38;;;;;;;8.02;3.42;;;16.50;99.90;;;;;;5043454;28;20510;-61
2023/03/13 08:07:08;;;;;;;3.70;2.05;;;17.10;99.90;;;;;;5038011;28;20268;-61
2023/03/13 08:09:33;;;;;;;7.05;2.75;;;17.10;99.90;;;;;;5042477;28;20186;-62
2023/03/13 08:12:00;;;;;;;4.32;3.00;;;16.60;99.90;;;;;;5034148;28;20202;-62
2023/03/13 08:14:26;;;;;;;3.58;2.80;;;16.30;99.90;;;;;;5035194;28;20268;-61
2023/03/13 08:16:52;;;;;;;3.17;2.17;;;16.00;99.90;;;;;;5033368;28;20262;-61
2023/03/13 08:19:18;;;;;;;4.43;2.63;;;15.90;99.90;;;;;;5043322;28;20277;-61
2023/03/13 08:21:43;;;;;;;4.28;2.67;;;15.90;99.90;;;;;;5041995;28;20253;-61
2023/03/13 08:24:11;;;;;;;6.93;2.80;;;16.00;99.90;;;;;;5043593;28;20198;-61
2023/03/13 08:26:40;;;;;;;3.53;2.55;;;16.60;99.90;;;;;;5034721;28;20207;-60
2023/03/13 08:29:12;;;;;;;8.27;2.63;;;17.00;99.90;;;;;;5035116;28;20205;-62
2023/03/13 08:31:43;;;;;;;2.97;2.10;;;17.10;99.90;;;;;;5034121;28;20669;-61
2023/03/13 08:34:11;;;;;;;2.60;2.03;;;17.40;99.90;;;;;;5032685;28;20269;-62
2023/03/13 08:36:37;;;;;;;2.90;2.70;;;17.00;99.90;;;;;;5034303;28;20179;-61
2023/03/13 08:39:14;;;;;;;2.03;1.92;;;16.30;99.90;;;;;;5045396;28;20187;-61
2023/03/13 08:41:40;;;;;;;4.03;2.65;;;16.20;99.90;;;;;;5047145;28;20189;-61
2023/03/13 08:44:10;;;;;;;3.40;2.88;;;16.00;99.90;;;;;;5040568;28;20178;-61
2023/03/13 08:46:36;;;;;;;3.75;2.53;;;16.40;99.90;;;;;;5033575;28;20183;-61
2023/03/13 08:49:02;;;;;;;3.85;2.63;;;16.50;99.90;;;;;;5043486;28;20186;-63
2023/03/13 08:51:28;;;;;;;7.05;2.90;;;16.40;99.90;;;;;;5035198;28;20317;-61
2023/03/13 08:53:54;;;;;;;2.85;2.30;;;16.40;99.90;;;;;;5031385;28;20719;-61
2023/03/13 08:56:23;;;;;;;5.28;2.78;;;16.50;99.90;;;;;;5035282;28;20182;-61
2023/03/13 08:58:56;;;;;;;4.28;1.90;;;16.40;99.90;;;;;;5038346;28;20644;-61
2023/03/13 09:01:24;;;;;;;3.47;2.63;;;16.40;99.90;;;;;;5046488;28;20197;-60
2023/03/13 09:03:50;;;;;;;5.97;2.80;;;16.40;99.90;;;;;;5029474;28;20650;-60
2023/03/13 09:06:16;;;;;;;7.65;2.75;;;16.40;99.90;;;;;;5053363;28;20221;-60
2023/03/13 09:08:42;;;;;;;2.88;2.38;;;16.20;99.90;;;;;;5063488;28;20189;-60
2023/03/13 09:11:11;;;;;;;3.58;2.13;;;16.30;99.90;;;;;;5065631;28;20201;-60
2023/03/13 09:13:39;;;;;;;2.47;2.28;;;16.40;99.90;;;;;;5063715;28;20182;-60
2023/03/13 09:16:08;;;;;;;4.35;2.35;;;16.30;99.90;;;;;;5056890;28;20184;-60
2023/03/13 09:18:34;;;;;;;6.28;2.38;;;16.40;99.90;;;;;;5059825;28;20215;-59
2023/03/13 09:21:01;;;;;;;2.13;1.95;;;16.20;99.90;;;;;;5069927;28;20189;-60
2023/03/13 09:23:27;;;;;;;5.28;2.40;;;16.20;99.90;;;;;;5069750;28;20189;-61
2023/03/13 09:25:54;;;;;;;1.85;1.75;;;16.30;99.90;;;;;;5057505;28;20186;-60
2023/03/13 09:28:20;;;;;;;5.63;3.47;;;16.20;99.90;;;;;;5070489;28;20223;-59
2023/03/13 09:30:45;;;;;;;2.47;2.28;;;16.30;99.90;;;;;;5056047;28;20229;-59
2023/03/13 09:33:11;;;;;;;2.70;2.45;;;16.40;99.90;;;;;;5066569;28;20272;-58
2023/03/13 09:35:40;;;;;;;3.58;1.98;;;16.30;99.90;;;;;;5065209;28;20634;-61
2023/03/13 09:38:06;;;;;;;5.50;2.15;;;16.30;99.90;;;;;;5058813;28;20511;-60
2023/03/13 09:40:40;;;;;;;2.30;2.10;;;16.20;99.90;;;;;;5063147;28;20197;-60
2023/03/13 09:43:24;;;;;;;5.88;2.67;;;16.30;99.90;;;;;;5062756;28;20205;-60
2023/03/13 09:45:53;;;;;;;2.45;2.25;;;16.40;99.90;;;;;;5060043;28;20691;-60
2023/03/13 09:48:32;;;;;;;4.53;2.05;;;16.40;99.90;;;;;;5064761;28;20178;-61
2023/03/13 09:51:19;;;;;;;3.45;2.88;;;16.50;99.90;;;;;;5064738;28;20205;-60
2023/03/13 09:53:54;;;;;;;3.15;2.25;;;16.60;99.90;;;;;;5062237;28;20227;-60
2023/03/13 09:56:25;;;;;;;2.42;2.22;;;16.50;99.90;;;;;;5063619;28;20264;-61
2023/03/13 09:59:15;;;;;;;3.67;2.33;;;16.60;99.90;;;;;;5072934;28;20666;-60
2023/03/13 10:01:42;;;;;;;2.30;2.10;;;16.70;99.90;;;;;;5059267;28;20190;-61
2023/03/13 10:04:30;;;;;;;2.53;1.83;;;16.90;99.90;;;;;;5056315;28;20186;-60
2023/03/13 10:06:56;;;;;;;1.95;1.63;;;17.00;99.90;;;;;;5049469;28;20614;-61
2023/03/13 10:09:29;;;;;;;2.28;2.05;;;17.20;99.90;;;;;;5027304;28;20187;-61
2023/03/13 10:12:14;;;;;;;4.07;2.30;;;17.30;99.90;;;;;;5047523;28;20200;-60
2023/03/13 10:15:01;;;;;;;1.60;1.50;;;17.50;99.90;;;;;;5036985;28;20174;-60
2023/03/13 10:17:35;;;;;;;6.03;1.40;;;17.30;99.90;;;;;;5039068;28;20179;-60
2023/03/13 10:20:22;;;;;;;1.92;1.83;;;17.40;99.90;;;;;;5050992;28;20185;-60
2023/03/13 10:22:54;;;;;;;2.30;2.17;;;17.50;99.90;;;;;;5039304;28;20182;-60
2023/03/13 10:25:28;;;;;;;2.83;1.75;;;17.50;99.90;;;;;;5037215;28;20532;-60
2023/03/13 10:27:55;;;;;;;2.05;1.85;;;17.40;99.90;;;;;;5044427;28;20177;-60
2023/03/13 10:30:34;;;;;;;1.75;1.52;;;17.20;99.90;;;;;;5037407;28;20535;-60
2023/03/13 10:33:11;;;;;;;1.77;1.67;;;17.20;99.90;;;;;;5047993;28;20194;-60
2023/03/13 10:35:40;;;;;;;2.28;2.17;;;17.40;99.90;;;;;;5028578;28;20171;-60
2023/03/13 10:38:12;;;;;;;3.33;1.95;;;17.50;99.90;;;;;;5039898;28;20198;-61
2023/03/13 10:40:38;;;;;;;1.85;1.45;;;17.60;99.90;;;;;;5041748;28;20752;-61
2023/03/13 10:43:17;;;;;;;2.03;1.70;;;17.70;99.90;;;;;;5046412;28;20357;-61
2023/03/13 10:45:43;;;;;;;2.58;2.38;;;17.70;99.90;;;;;;5052853;28;20260;-61
2023/03/13 10:48:19;;;;;;;2.33;1.60;;;17.80;99.90;;;;;;5043755;28;20273;-60
2023/03/13 10:50:47;;;;;;;3.00;1.60;;;18.00;99.90;;;;;;5042495;28;20205;-60
2023/03/13 10:53:31;;;;;;;1.85;1.73;;;17.80;99.90;;;;;;5053315;28;20186;-60
2023/03/13 10:56:07;;;;;;;3.47;1.60;;;17.90;99.90;;;;;;5037822;28;20190;-61
2023/03/13 10:58:34;;;;;;;1.65;1.50;;;18.10;99.90;;;;;;5045916;28;20638;-62
2023/03/13 11:01:19;;;;;;;2.45;1.33;;;17.90;99.90;;;;;;5035802;28;20686;-62
2023/03/13 11:03:47;;;;;;;1.52;1.42;;;17.90;99.90;;;;;;5046451;28;20201;-60
2023/03/13 11:06:30;;;;;;;2.72;1.20;;;17.90;99.90;;;;;;5045945;28;20233;-60
2023/03/13 11:09:11;;;;;;;1.83;1.42;;;18.00;99.90;;;;;;5050639;28;20257;-62
2023/03/13 11:11:49;;;;;;;4.97;2.60;;;18.30;99.90;;;;;;5028314;28;21132;-61
2023/03/13 11:14:23;;;;;;;5.20;1.40;;;18.50;99.90;;;;;;5043138;28;20249;-61
2023/03/13 11:17:08;;;;;;;1.33;1.17;;;18.60;99.90;;;;;;5049601;28;20187;-61
2023/03/13 11:19:42;;;;;;;2.28;1.23;;;18.80;99.90;;;;;;5047913;28;20237;-61
2023/03/13 11:22:13;;;;;;;1.83;1.40;;;19.00;99.90;;;;;;5043091;28;20182;-62
2023/03/13 11:25:24;;;;;;;1.30;1.20;;;19.10;99.90;;;;;;5038786;28;20173;-62
2023/03/13 11:28:24;;;;;;;3.70;1.20;;;19.10;99.90;;;;;;5037302;28;20285;-61
2023/03/13 11:31:07;;;;;;;2.28;1.30;;;19.10;99.90;;;;;;5018485;28;20226;-61
2023/03/13 11:33:37;;;;;;;1.45;1.20;;;18.90;99.90;;;;;;5044314;28;20263;-61
2023/03/13 11:36:34;;;;;;;1.80;0.93;;;18.90;99.90;;;;;;5048840;28;20182;-61
2023/03/13 11:39:36;;;;;;;2.22;2.13;;;19.00;99.90;;;;;;5044347;28;20655;-60
2023/03/13 11:42:15;;;;;;;2.55;1.40;;;18.70;99.90;;;;;;5047819;28;20190;-62
2023/03/13 11:44:57;;;;;;;1.73;1.20;;;18.70;99.90;;;;;;5049128;28;20189;-61
2023/03/13 11:47:52;;;;;;;2.28;1.30;;;18.60;99.90;;;;;;5034671;28;21984;-61
2023/03/13 11:50:31;;;;;;;1.27;1.25;;;18.50;99.90;;;;;;5035763;28;20207;-61
2023/03/13 11:53:22;;;;;;;4.88;1.00;;;18.40;99.90;;;;;;5046053;28;20186;-61
2023/03/13 11:56:06;;;;;;;1.38;0.80;;;18.50;99.90;;;;;;5045435;28;20265;-61
2023/03/13 11:58:48;;;;;;;1.42;1.15;;;18.40;99.90;;;;;;5049895;28;20189;-61
2023/03/13 12:01:19;;;;;;;1.23;1.13;;;18.40;99.90;;;;;;5039180;28;20272;-61
2023/03/13 12:04:32;;;;;;;1.98;1.67;;;18.20;99.90;;;;;;5048238;28;20518;-60
2023/03/13 12:07:28;;;;;;;0.90;0.90;;;18.10;99.90;;;;;;4985176;28;20246;-62
2023/03/13 12:10:01;;;;;;;2.38;1.00;;;18.10;99.90;;;;;;5043057;28;20631;-62
2023/03/13 12:12:49;;;;;;;1.95;1.10;;;18.20;99.90;;;;;;5043225;28;20591;-62
2023/03/13 12:15:31;;;;;;;1.52;1.05;;;18.40;99.90;;;;;;5042873;28;20178;-61
2023/03/13 12:18:01;;;;;;;1.75;1.50;;;18.50;99.90;;;;;;5043228;28;20189;-62
2023/03/13 12:20:52;;;;;;;5.80;1.40;;;18.50;99.90;;;;;;5046140;28;20182;-62
2023/03/13 12:23:42;;;;;;;4.18;1.48;;;18.40;99.90;;;;;;5040746;28;20710;-62
2023/03/13 12:26:25;;;;;;;1.20;1.10;;;18.20;99.90;;;;;;5042233;28;20178;-61
2023/03/13 12:29:14;;;;;;;0.93;0.93;;;18.10;99.90;;;;;;5050248;28;20177;-62
2023/03/13 12:32:23;;;;;;;1.33;1.27;;;17.90;99.90;;;;;;5040469;28;20210;-62
2023/03/13 12:34:55;;;;;;;1.35;1.10;;;17.90;99.90;;;;;;5044100;28;20181;-62
2023/03/13 12:37:35;;;;;;;1.30;1.20;;;18.10;99.90;;;;;;5048498;28;20174;-61
2023/03/13 12:40:24;;;;;;;1.67;1.55;;;18.00;99.90;;;;;;5045406;28;20186;-62
2023/03/13 12:43:04;;;;;;;2.35;1.42;;;18.10;99.90;;;;;;5039731;28;20690;-62
2023/03/13 12:45:31;;;;;;;3.05;1.23;;;18.10;99.90;;;;;;5049887;28;20204;-61
2023/03/13 12:48:11;;;;;;;1.85;1.75;;;18.00;99.90;;;;;;5045870;28;20194;-62
2023/03/13 12:50:46;;;;;;;1.55;1.13;;;17.80;99.90;;;;;;5047903;28;20240;-62
2023/03/13 12:53:20;;;;;;;1.15;1.10;;;17.90;99.90;;;;;;5039124;28;20235;-62
2023/03/13 12:55:55;;;;;;;1.33;1.30;;;17.90;99.90;;;;;;5040284;28;20178;-62
2023/03/13 12:58:23;;;;;;;2.38;1.60;;;17.80;99.90;;;;;;5043305;28;20547;-61
2023/03/13 13:00:50;;;;;;;1.77;1.42;;;17.80;99.90;;;;;;5038514;28;20555;-62